sensor_id;sensor_type;location;lat;lon;timestamp;pressure;altitude;pressure_sealevel;temperature;humidity
51299;BME280;37382;45.192;9.790;2023-04-24T00:02:16;100264.09;;;17.15;100.00
51299;BME280;37382;45.192;9.790;2023-04-24T00:04:44;100265.00;;;17.03;100.00
51299;BME280;37382;45.192;9.790;2023-04-24T00:07:16;100267.41;;;17.17;100.00
51299;BME280;37382;45.192;9.790;2023-04-24T00:09:44;100271.78;;;16.96;100.00
51299;BME280;37382;45.192;9.790;2023-04-24T00:12:11;100271.97;;;16.89;100.00
51299;BME280;37382;45.192;9.790;2023-04-24T00:14:39;100278.59;;;16.93;100.00
51299;BME280;37382;45.192;9.790;2023-04-24T00:17:06;100272.34;;;16.81;100.00
51299;BME280;37382;45.192;9.790;2023-04-24T00:19:34;100276.09;;;16.58;100.00
51299;BME280;37382;45.192;9.790;2023-04-24T00:22:02;100265.44;;;16.44;100.00
51299;BME280;37382;45.192;9.790;2023-04-24T00:24:29;100273.16;;;16.30;100.00
51299;BME280;37382;45.192;9.790;2023-04-24T00:26:57;100266.53;;;16.43;100.00
51299;BME280;37382;45.192;9.790;2023-04-24T00:29:25;100265.81;;;16.19;100.00
51299;BME280;37382;45.192;9.790;2023-04-24T00:31:52;100274.50;;;15.99;100.00
51299;BME280;37382;45.192;9.790;2023-04-24T00:34:20;100274.84;;;16.03;100.00
51299;BME280;37382;45.192;9.790;2023-04-24T00:36:47;100275.53;;;16.10;100.00
51299;BME280;37382;45.192;9.790;2023-04-24T00:39:21;100276.69;;;16.14;100.00
51299;BME280;37382;45.192;9.790;2023-04-24T00:41:50;100276.81;;;16.19;100.00
51299;BME280;37382;45.192;9.790;2023-04-24T00:44:18;100282.53;;;15.77;100.00
51299;BME280;37382;45.192;9.790;2023-04-24T00:46:46;100282.78;;;15.87;100.00
51299;BME280;37382;45.192;9.790;2023-04-24T00:49:14;100274.72;;;15.69;100.00
51299;BME280;37382;45.192;9.790;2023-04-24T00:51:41;100266.69;;;15.79;100.00
51299;BME280;37382;45.192;9.790;2023-04-24T00:54:13;100267.06;;;15.82;100.00
51299;BME280;37382;45.192;9.790;2023-04-24T00:56:42;100268.66;;;15.95;100.00
51299;BME280;37382;45.192;9.790;2023-04-24T00:59:11;100261.63;;;15.99;100.00
51299;BME280;37382;45.192;9.790;2023-04-24T01:01:39;100259.69;;;16.00;100.00
51299;BME280;37382;45.192;9.790;2023-04-24T01:04:11;100245.69;;;15.85;100.00
51299;BME280;37382;45.192;9.790;2023-04-24T01:06:40;100232.63;;;16.04;100.00
51299;BME280;37382;45.192;9.790;2023-04-24T01:09:09;100230.22;;;16.24;100.00
51299;BME280;37382;45.192;9.790;2023-04-24T01:11:37;100242.00;;;16.08;100.00
51299;BME280;37382;45.192;9.790;2023-04-24T01:14:05;100245.19;;;16.16;100.00
51299;BME280;37382;45.192;9.790;2023-04-24T01:16:33;100234.28;;;16.05;100.00
51299;BME280;37382;45.192;9.790;2023-04-24T01:19:02;100227.41;;;16.19;100.00
51299;BME280;37382;45.192;9.790;2023-04-24T01:21:30;100237.38;;;16.25;100.00
51299;BME280;37382;45.192;9.790;2023-04-24T01:23:58;100244.13;;;16.17;100.00
51299;BME280;37382;45.192;9.790;2023-04-24T01:26:26;100241.44;;;16.06;100.00
51299;BME280;37382;45.192;9.790;2023-04-24T01:28:53;100245.81;;;15.90;100.00
51299;BME280;37382;45.192;9.790;2023-04-24T01:31:21;100253.78;;;15.91;100.00
51299;BME280;37382;45.192;9.790;2023-04-24T01:33:49;100250.94;;;15.86;100.00
51299;BME280;37382;45.192;9.790;2023-04-24T01:36:18;100257.78;;;15.72;100.00
51299;BME280;37382;45.192;9.790;2023-04-24T01:38:46;100255.78;;;15.55;100.00
51299;BME280;37382;45.192;9.790;2023-04-24T01:41:13;100255.28;;;15.82;100.00
51299;BME280;37382;45.192;9.790;2023-04-24T01:43:41;100254.09;;;15.78;100.00
51299;BME280;37382;45.192;9.790;2023-04-24T01:46:09;100243.88;;;15.90;100.00
51299;BME280;37382;45.192;9.790;2023-04-24T01:48:36;100244.41;;;16.04;100.00
51299;BME280;37382;45.192;9.790;2023-04-24T01:51:04;100240.78;;;16.15;100.00
51299;BME280;37382;45.192;9.790;2023-04-24T01:53:32;100241.00;;;16.14;100.00
51299;BME280;37382;45.192;9.790;2023-04-24T01:56:00;100233.88;;;16.13;100.00
51299;BME280;37382;45.192;9.790;2023-04-24T01:58:29;100234.03;;;15.77;100.00
51299;BME280;37382;45.192;9.790;2023-04-24T02:00:57;100228.28;;;15.50;100.00
51299;BME280;37382;45.192;9.790;2023-04-24T02:03:26;100231.75;;;15.86;100.00
51299;BME280;37382;45.192;9.790;2023-04-24T02:05:55;100236.81;;;15.65;100.00
51299;BME280;37382;45.192;9.790;2023-04-24T02:08:24;100229.94;;;15.51;100.00
51299;BME280;37382;45.192;9.790;2023-04-24T02:10:52;100230.13;;;15.61;100.00
51299;BME280;37382;45.192;9.790;2023-04-24T02:13:19;100231.22;;;15.60;100.00
51299;BME280;37382;45.192;9.790;2023-04-24T02:15:47;100237.34;;;15.39;100.00
51299;BME280;37382;45.192;9.790;2023-04-24T02:18:14;100233.81;;;15.15;100.00
51299;BME280;37382;45.192;9.790;2023-04-24T02:20:43;100240.97;;;15.27;100.00
51299;BME280;37382;45.192;9.790;2023-04-24T02:23:10;100240.75;;;15.17;100.00
51299;BME280;37382;45.192;9.790;2023-04-24T02:25:38;100241.69;;;15.23;100.00
51299;BME280;37382;45.192;9.790;2023-04-24T02:28:05;100255.63;;;15.09;100.00
51299;BME280;37382;45.192;9.790;2023-04-24T02:30:33;100259.19;;;15.22;100.00
51299;BME280;37382;45.192;9.790;2023-04-24T02:33:01;100251.94;;;14.92;100.00
51299;BME280;37382;45.192;9.790;2023-04-24T02:35:30;100255.28;;;15.06;100.00
51299;BME280;37382;45.192;9.790;2023-04-24T02:37:58;100250.97;;;14.98;100.00
51299;BME280;37382;45.192;9.790;2023-04-24T02:40:25;100252.41;;;15.12;100.00
51299;BME280;37382;45.192;9.790;2023-04-24T02:42:53;100240.97;;;15.16;100.00
51299;BME280;37382;45.192;9.790;2023-04-24T02:45:21;100252.28;;;15.19;100.00
51299;BME280;37382;45.192;9.790;2023-04-24T02:47:48;100254.44;;;14.93;100.00
51299;BME280;37382;45.192;9.790;2023-04-24T02:50:15;100255.16;;;14.89;100.00
51299;BME280;37382;45.192;9.790;2023-04-24T02:52:43;100249.09;;;14.75;100.00
51299;BME280;37382;45.192;9.790;2023-04-24T02:55:11;100249.81;;;14.82;100.00
51299;BME280;37382;45.192;9.790;2023-04-24T02:57:38;100255.50;;;14.69;100.00
51299;BME280;37382;45.192;9.790;2023-04-24T03:00:06;100252.13;;;14.55;100.00
51299;BME280;37382;45.192;9.790;2023-04-24T03:02:34;100250.81;;;14.46;100.00
51299;BME280;37382;45.192;9.790;2023-04-24T03:05:02;100248.28;;;14.32;100.00
51299;BME280;37382;45.192;9.790;2023-04-24T03:07:30;100254.22;;;14.29;100.00
51299;BME280;37382;45.192;9.790;2023-04-24T03:09:59;100244.38;;;14.40;100.00
51299;BME280;37382;45.192;9.790;2023-04-24T03:12:27;100249.09;;;14.75;100.00
51299;BME280;37382;45.192;9.790;2023-04-24T03:14:55;100249.09;;;14.75;100.00
51299;BME280;37382;45.192;9.790;2023-04-24T03:17:22;100251.94;;;14.92;100.00
51299;BME280;37382;45.192;9.790;2023-04-24T03:19:50;100237.19;;;14.81;100.00
51299;BME280;37382;45.192;9.790;2023-04-24T03:22:17;100238.50;;;14.79;100.00
51299;BME280;37382;45.192;9.790;2023-04-24T03:24:46;100242.53;;;15.00;100.00
51299;BME280;37382;45.192;9.790;2023-04-24T03:27:16;100236.88;;;15.30;100.00
51299;BME280;37382;45.192;9.790;2023-04-24T03:29:55;100231.06;;;15.26;100.00
51299;BME280;37382;45.192;9.790;2023-04-24T03:32:34;100235.97;;;15.24;100.00
51299;BME280;37382;45.192;9.790;2023-04-24T03:35:02;100236.88;;;15.42;100.00
51299;BME280;37382;45.192;9.790;2023-04-24T03:37:31;100240.84;;;15.22;100.00
51299;BME280;37382;45.192;9.790;2023-04-24T03:40:12;100239.53;;;15.13;100.00
51299;BME280;37382;45.192;9.790;2023-04-24T03:42:40;100237.28;;;14.98;100.00
51299;BME280;37382;45.192;9.790;2023-04-24T03:45:09;100233.38;;;14.82;100.00
51299;BME280;37382;45.192;9.790;2023-04-24T03:47:39;100236.25;;;14.64;100.00
51299;BME280;37382;45.192;9.790;2023-04-24T03:50:07;100233.03;;;14.79;100.00
51299;BME280;37382;45.192;9.790;2023-04-24T03:52:38;100235.16;;;15.12;100.00
51299;BME280;37382;45.192;9.790;2023-04-24T03:55:07;100225.44;;;15.33;100.00
51299;BME280;37382;45.192;9.790;2023-04-24T03:57:41;100216.91;;;15.18;100.00
51299;BME280;37382;45.192;9.790;2023-04-24T04:00:18;100222.75;;;15.21;100.00
51299;BME280;37382;45.192;9.790;2023-04-24T04:02:53;100228.34;;;15.26;100.00
51299;BME280;37382;45.192;9.790;2023-04-24T04:05:21;100232.63;;;15.22;100.00
51299;BME280;37382;45.192;9.790;2023-04-24T04:07:49;100215.28;;;15.05;100.00
51299;BME280;37382;45.192;9.790;2023-04-24T04:10:17;100218.09;;;15.10;100.00
51299;BME280;37382;45.192;9.790;2023-04-24T04:12:44;100214.31;;;15.11;100.00
51299;BME280;37382;45.192;9.790;2023-04-24T04:15:12;100212.75;;;15.15;100.00
51299;BME280;37382;45.192;9.790;2023-04-24T04:17:40;100220.59;;;15.11;100.00
51299;BME280;37382;45.192;9.790;2023-04-24T04:20:09;100217.06;;;14.64;100.00
51299;BME280;37382;45.192;9.790;2023-04-24T04:22:38;100221.13;;;14.73;100.00
51299;BME280;37382;45.192;9.790;2023-04-24T04:25:12;100225.25;;;15.11;100.00
51299;BME280;37382;45.192;9.790;2023-04-24T04:27:42;100224.69;;;15.09;100.00
51299;BME280;37382;45.192;9.790;2023-04-24T04:30:12;100217.63;;;15.01;100.00
51299;BME280;37382;45.192;9.790;2023-04-24T04:32:52;100220.75;;;15.05;100.00
51299;BME280;37382;45.192;9.790;2023-04-24T04:35:21;100225.38;;;15.04;100.00
51299;BME280;37382;45.192;9.790;2023-04-24T04:37:51;100223.72;;;15.03;100.00
51299;BME280;37382;45.192;9.790;2023-04-24T04:40:37;100222.44;;;15.06;100.00
51299;BME280;37382;45.192;9.790;2023-04-24T04:43:06;100231.00;;;14.98;100.00
51299;BME280;37382;45.192;9.790;2023-04-24T04:45:43;100226.47;;;14.80;100.00
51299;BME280;37382;45.192;9.790;2023-04-24T04:48:41;100218.72;;;14.53;100.00
51299;BME280;37382;45.192;9.790;2023-04-24T04:51:09;100228.75;;;14.71;100.00
51299;BME280;37382;45.192;9.790;2023-04-24T04:53:38;100230.34;;;14.60;100.00
51299;BME280;37382;45.192;9.790;2023-04-24T04:56:07;100228.28;;;14.74;100.00
51299;BME280;37382;45.192;9.790;2023-04-24T04:58:45;100242.91;;;14.80;100.00
51299;BME280;37382;45.192;9.790;2023-04-24T05:01:16;100239.56;;;15.01;100.00
51299;BME280;37382;45.192;9.790;2023-04-24T05:03:46;100239.06;;;15.04;100.00
51299;BME280;37382;45.192;9.790;2023-04-24T05:06:17;100242.19;;;15.08;100.00
51299;BME280;37382;45.192;9.790;2023-04-24T05:08:45;100243.84;;;15.09;100.00
51299;BME280;37382;45.192;9.790;2023-04-24T05:11:26;100248.00;;;15.00;100.00
51299;BME280;37382;45.192;9.790;2023-04-24T05:13:56;100248.84;;;14.88;100.00
51299;BME280;37382;45.192;9.790;2023-04-24T05:16:32;100254.09;;;14.90;100.00
51299;BME280;37382;45.192;9.790;2023-04-24T05:19:01;100249.69;;;15.01;100.00
51299;BME280;37382;45.192;9.790;2023-04-24T05:21:33;100257.19;;;15.17;100.00
51299;BME280;37382;45.192;9.790;2023-04-24T05:24:02;100257.66;;;15.14;100.00
51299;BME280;37382;45.192;9.790;2023-04-24T05:26:52;100266.44;;;15.40;100.00
51299;BME280;37382;45.192;9.790;2023-04-24T05:29:25;100263.56;;;15.46;100.00
51299;BME280;37382;45.192;9.790;2023-04-24T05:31:53;100266.13;;;15.24;100.00
51299;BME280;37382;45.192;9.790;2023-04-24T05:34:24;100264.69;;;15.22;100.00
51299;BME280;37382;45.192;9.790;2023-04-24T05:36:55;100274.91;;;15.38;100.00
51299;BME280;37382;45.192;9.790;2023-04-24T05:39:23;100283.38;;;15.37;100.00
51299;BME280;37382;45.192;9.790;2023-04-24T05:41:53;100277.31;;;14.99;100.00
51299;BME280;37382;45.192;9.790;2023-04-24T05:44:20;100278.38;;;15.34;100.00
51299;BME280;37382;45.192;9.790;2023-04-24T05:46:48;100274.03;;;15.38;100.00
51299;BME280;37382;45.192;9.790;2023-04-24T05:49:16;100278.22;;;15.40;100.00
51299;BME280;37382;45.192;9.790;2023-04-24T05:51:45;100273.13;;;15.20;100.00
51299;BME280;37382;45.192;9.790;2023-04-24T05:54:13;100279.34;;;15.16;100.00
51299;BME280;37382;45.192;9.790;2023-04-24T05:56:41;100278.28;;;15.05;100.00
51299;BME280;37382;45.192;9.790;2023-04-24T05:59:13;100269.91;;;15.23;100.00
51299;BME280;37382;45.192;9.790;2023-04-24T06:01:40;100270.72;;;15.36;100.00
51299;BME280;37382;45.192;9.790;2023-04-24T06:04:14;100264.53;;;15.40;100.00
51299;BME280;37382;45.192;9.790;2023-04-24T06:06:42;100259.06;;;15.28;100.00
51299;BME280;37382;45.192;9.790;2023-04-24T06:09:10;100257.38;;;15.39;100.00
51299;BME280;37382;45.192;9.790;2023-04-24T06:11:38;100258.09;;;15.35;100.00
51299;BME280;37382;45.192;9.790;2023-04-24T06:14:08;100259.91;;;15.17;100.00
51299;BME280;37382;45.192;9.790;2023-04-24T06:16:41;100263.22;;;15.43;100.00
51299;BME280;37382;45.192;9.790;2023-04-24T06:19:26;100265.47;;;15.46;100.00
51299;BME280;37382;45.192;9.790;2023-04-24T06:21:54;100263.72;;;15.16;100.00
51299;BME280;37382;45.192;9.790;2023-04-24T06:24:22;100263.56;;;15.35;100.00
51299;BME280;37382;45.192;9.790;2023-04-24T06:26:49;100273.56;;;15.41;100.00
51299;BME280;37382;45.192;9.790;2023-04-24T06:29:16;100267.56;;;15.15;100.00
51299;BME280;37382;45.192;9.790;2023-04-24T06:31:44;100271.34;;;15.14;100.00
51299;BME280;37382;45.192;9.790;2023-04-24T06:34:12;100269.53;;;15.43;100.00
51299;BME280;37382;45.192;9.790;2023-04-24T06:36:40;100275.53;;;15.69;100.00
51299;BME280;37382;45.192;9.790;2023-04-24T06:39:08;100276.44;;;15.46;100.00
51299;BME280;37382;45.192;9.790;2023-04-24T06:41:36;100287.00;;;15.66;100.00
51299;BME280;37382;45.192;9.790;2023-04-24T06:44:04;100291.00;;;15.23;100.00
51299;BME280;37382;45.192;9.790;2023-04-24T06:46:32;100290.78;;;15.77;100.00
51299;BME280;37382;45.192;9.790;2023-04-24T06:49:00;100292.75;;;15.53;100.00
51299;BME280;37382;45.192;9.790;2023-04-24T06:51:27;100288.91;;;16.06;100.00
51299;BME280;37382;45.192;9.790;2023-04-24T06:53:55;100288.75;;;16.59;100.00
51299;BME280;37382;45.192;9.790;2023-04-24T06:56:25;100301.41;;;16.77;100.00
51299;BME280;37382;45.192;9.790;2023-04-24T06:58:53;100292.66;;;16.80;100.00
51299;BME280;37382;45.192;9.790;2023-04-24T07:01:21;100295.28;;;16.41;100.00
51299;BME280;37382;45.192;9.790;2023-04-24T07:03:49;100302.53;;;16.01;100.00
51299;BME280;37382;45.192;9.790;2023-04-24T07:06:16;100304.69;;;16.28;100.00
51299;BME280;37382;45.192;9.790;2023-04-24T07:08:45;100310.94;;;15.82;100.00
51299;BME280;37382;45.192;9.790;2023-04-24T07:11:13;100317.16;;;15.54;100.00
51299;BME280;37382;45.192;9.790;2023-04-24T07:13:41;100318.34;;;15.82;100.00
51299;BME280;37382;45.192;9.790;2023-04-24T07:16:11;100315.00;;;15.80;100.00
51299;BME280;37382;45.192;9.790;2023-04-24T07:18:38;100314.81;;;15.46;100.00
51299;BME280;37382;45.192;9.790;2023-04-24T07:21:07;100313.94;;;15.57;100.00
51299;BME280;37382;45.192;9.790;2023-04-24T07:23:34;100310.81;;;15.77;100.00
51299;BME280;37382;45.192;9.790;2023-04-24T07:26:02;100308.69;;;15.56;100.00
51299;BME280;37382;45.192;9.790;2023-04-24T07:28:30;100307.72;;;15.86;100.00
51299;BME280;37382;45.192;9.790;2023-04-24T07:30:58;100294.47;;;16.40;100.00
51299;BME280;37382;45.192;9.790;2023-04-24T07:33:27;100310.72;;;15.60;100.00
51299;BME280;37382;45.192;9.790;2023-04-24T07:35:54;100304.19;;;15.38;100.00
51299;BME280;37382;45.192;9.790;2023-04-24T07:38:22;100311.91;;;15.64;100.00
51299;BME280;37382;45.192;9.790;2023-04-24T07:40:52;100305.78;;;15.86;100.00
51299;BME280;37382;45.192;9.790;2023-04-24T07:43:20;100301.31;;;16.09;100.00
51299;BME280;37382;45.192;9.790;2023-04-24T07:45:48;100298.69;;;16.31;100.00
51299;BME280;37382;45.192;9.790;2023-04-24T07:48:16;100307.22;;;15.89;100.00
51299;BME280;37382;45.192;9.790;2023-04-24T07:50:44;100302.00;;;15.63;100.00
51299;BME280;37382;45.192;9.790;2023-04-24T07:53:12;100312.97;;;15.63;100.00
51299;BME280;37382;45.192;9.790;2023-04-24T07:55:40;100307.97;;;15.60;100.00
51299;BME280;37382;45.192;9.790;2023-04-24T07:58:08;100307.72;;;15.62;100.00
51299;BME280;37382;45.192;9.790;2023-04-24T08:00:35;100316.69;;;15.81;100.00
51299;BME280;37382;45.192;9.790;2023-04-24T08:03:03;100309.09;;;16.00;100.00
51299;BME280;37382;45.192;9.790;2023-04-24T08:05:30;100320.22;;;15.70;100.00
51299;BME280;37382;45.192;9.790;2023-04-24T08:07:58;100317.53;;;16.10;100.00
51299;BME280;37382;45.192;9.790;2023-04-24T08:10:26;100312.94;;;16.28;100.00
51299;BME280;37382;45.192;9.790;2023-04-24T08:12:54;100309.28;;;16.56;100.00
51299;BME280;37382;45.192;9.790;2023-04-24T08:15:22;100318.47;;;16.16;100.00
51299;BME280;37382;45.192;9.790;2023-04-24T08:17:49;100318.19;;;16.46;100.00
51299;BME280;37382;45.192;9.790;2023-04-24T08:20:17;100324.34;;;16.53;100.00
51299;BME280;37382;45.192;9.790;2023-04-24T08:22:44;100316.63;;;16.84;100.00
51299;BME280;37382;45.192;9.790;2023-04-24T08:25:14;100321.72;;;16.93;100.00
51299;BME280;37382;45.192;9.790;2023-04-24T08:27:42;100312.59;;;17.04;100.00
51299;BME280;37382;45.192;9.790;2023-04-24T08:30:10;100314.50;;;16.86;100.00
51299;BME280;37382;45.192;9.790;2023-04-24T08:32:37;100314.97;;;16.66;100.00
51299;BME280;37382;45.192;9.790;2023-04-24T08:35:05;100316.72;;;17.06;100.00
51299;BME280;37382;45.192;9.790;2023-04-24T08:37:33;100319.19;;;17.25;100.00
51299;BME280;37382;45.192;9.790;2023-04-24T08:40:06;100315.47;;;17.14;100.00
51299;BME280;37382;45.192;9.790;2023-04-24T08:42:37;100308.69;;;17.39;100.00
51299;BME280;37382;45.192;9.790;2023-04-24T08:45:06;100313.19;;;17.67;100.00
51299;BME280;37382;45.192;9.790;2023-04-24T08:47:35;100306.56;;;16.90;100.00
51299;BME280;37382;45.192;9.790;2023-04-24T08:50:03;100321.66;;;17.04;100.00
51299;BME280;37382;45.192;9.790;2023-04-24T08:52:33;100324.34;;;16.99;100.00
51299;BME280;37382;45.192;9.790;2023-04-24T08:55:01;100332.25;;;17.74;100.00
51299;BME280;37382;45.192;9.790;2023-04-24T08:57:30;100323.56;;;17.21;100.00
51299;BME280;37382;45.192;9.790;2023-04-24T08:59:59;100331.06;;;17.09;100.00
51299;BME280;37382;45.192;9.790;2023-04-24T09:02:28;100319.44;;;17.40;100.00
51299;BME280;37382;45.192;9.790;2023-04-24T09:04:57;100324.03;;;17.57;100.00
51299;BME280;37382;45.192;9.790;2023-04-24T09:07:26;100318.28;;;17.58;100.00
51299;BME280;37382;45.192;9.790;2023-04-24T09:09:54;100311.50;;;17.44;100.00
51299;BME280;37382;45.192;9.790;2023-04-24T09:12:23;100314.09;;;17.73;100.00
51299;BME280;37382;45.192;9.790;2023-04-24T09:14:51;100316.38;;;17.20;100.00
51299;BME280;37382;45.192;9.790;2023-04-24T09:17:18;100324.63;;;17.59;100.00
51299;BME280;37382;45.192;9.790;2023-04-24T09:19:46;100327.50;;;17.47;100.00
51299;BME280;37382;45.192;9.790;2023-04-24T09:22:13;100311.75;;;17.65;100.00
51299;BME280;37382;45.192;9.790;2023-04-24T09:24:42;100316.75;;;17.46;100.00
51299;BME280;37382;45.192;9.790;2023-04-24T09:27:11;100310.56;;;17.77;100.00
51299;BME280;37382;45.192;9.790;2023-04-24T09:29:53;100318.53;;;17.57;100.00
51299;BME280;37382;45.192;9.790;2023-04-24T09:32:23;100317.19;;;17.37;100.00
51299;BME280;37382;45.192;9.790;2023-04-24T09:35:22;100316.56;;;17.74;100.00
51299;BME280;37382;45.192;9.790;2023-04-24T09:37:51;100314.34;;;17.71;100.00
51299;BME280;37382;45.192;9.790;2023-04-24T09:40:21;100308.28;;;17.69;100.00
51299;BME280;37382;45.192;9.790;2023-04-24T09:42:54;100297.56;;;17.73;100.00
51299;BME280;37382;45.192;9.790;2023-04-24T09:45:37;100312.59;;;17.87;100.00
51299;BME280;37382;45.192;9.790;2023-04-24T09:48:09;100298.25;;;17.63;100.00
51299;BME280;37382;45.192;9.790;2023-04-24T09:50:37;100294.75;;;17.68;100.00
51299;BME280;37382;45.192;9.790;2023-04-24T09:53:06;100294.31;;;17.76;100.00
51299;BME280;37382;45.192;9.790;2023-04-24T09:55:39;100293.38;;;18.14;100.00
51299;BME280;37382;45.192;9.790;2023-04-24T09:58:08;100292.31;;;18.16;100.00
51299;BME280;37382;45.192;9.790;2023-04-24T10:00:35;100309.03;;;17.87;100.00
51299;BME280;37382;45.192;9.790;2023-04-24T10:03:04;100295.28;;;18.09;100.00
51299;BME280;37382;45.192;9.790;2023-04-24T10:05:35;100308.78;;;18.10;100.00
51299;BME280;37382;45.192;9.790;2023-04-24T10:08:04;100306.19;;;18.26;100.00
51299;BME280;37382;45.192;9.790;2023-04-24T10:10:37;100306.78;;;18.60;100.00
51299;BME280;37382;45.192;9.790;2023-04-24T10:13:07;100302.28;;;18.49;100.00
51299;BME280;37382;45.192;9.790;2023-04-24T10:15:34;100308.03;;;18.20;100.00
51299;BME280;37382;45.192;9.790;2023-04-24T10:18:04;100312.94;;;18.40;100.00
51299;BME280;37382;45.192;9.790;2023-04-24T10:20:36;100304.91;;;18.98;100.00
51299;BME280;37382;45.192;9.790;2023-04-24T10:23:05;100310.69;;;18.37;100.00
51299;BME280;37382;45.192;9.790;2023-04-24T10:25:34;100307.13;;;19.01;100.00
51299;BME280;37382;45.192;9.790;2023-04-24T10:28:03;100301.41;;;19.08;100.00
51299;BME280;37382;45.192;9.790;2023-04-24T10:30:33;100298.34;;;18.72;100.00
51299;BME280;37382;45.192;9.790;2023-04-24T10:33:07;100304.47;;;19.17;100.00
51299;BME280;37382;45.192;9.790;2023-04-24T10:35:41;100302.59;;;19.23;100.00
51299;BME280;37382;45.192;9.790;2023-04-24T10:38:13;100299.09;;;19.43;100.00
51299;BME280;37382;45.192;9.790;2023-04-24T10:40:42;100302.19;;;19.04;100.00
51299;BME280;37382;45.192;9.790;2023-04-24T10:43:16;100299.66;;;18.97;100.00
51299;BME280;37382;45.192;9.790;2023-04-24T10:46:16;100305.41;;;19.33;100.00
51299;BME280;37382;45.192;9.790;2023-04-24T10:48:53;100311.56;;;19.50;100.00
51299;BME280;37382;45.192;9.790;2023-04-24T10:51:23;100302.06;;;19.26;100.00
51299;BME280;37382;45.192;9.790;2023-04-24T10:53:51;100291.75;;;19.64;100.00
51299;BME280;37382;45.192;9.790;2023-04-24T10:56:21;100296.84;;;19.82;100.00
51299;BME280;37382;45.192;9.790;2023-04-24T10:58:51;100295.31;;;20.22;100.00
51299;BME280;37382;45.192;9.790;2023-04-24T11:01:32;100288.06;;;19.96;100.00
51299;BME280;37382;45.192;9.790;2023-04-24T11:04:02;100294.34;;;19.81;100.00
51299;BME280;37382;45.192;9.790;2023-04-24T11:06:34;100294.19;;;20.13;100.00
51299;BME280;37382;45.192;9.790;2023-04-24T11:09:06;100293.63;;;20.21;100.00
51299;BME280;37382;45.192;9.790;2023-04-24T11:11:35;100285.38;;;20.47;100.00
51299;BME280;37382;45.192;9.790;2023-04-24T11:14:05;100285.94;;;20.44;100.00
51299;BME280;37382;45.192;9.790;2023-04-24T11:16:42;100288.41;;;20.51;100.00
51299;BME280;37382;45.192;9.790;2023-04-24T11:21:48;100276.31;;;20.67;100.00
51299;BME280;37382;45.192;9.790;2023-04-24T11:26:52;100269.66;;;20.84;100.00
51299;BME280;37382;45.192;9.790;2023-04-24T11:29:21;100270.94;;;21.32;100.00
51299;BME280;37382;45.192;9.790;2023-04-24T11:31:50;100277.00;;;21.55;100.00
51299;BME280;37382;45.192;9.790;2023-04-24T11:34:18;100275.03;;;21.56;100.00
51299;BME280;37382;45.192;9.790;2023-04-24T11:36:46;100267.31;;;21.53;100.00
51299;BME280;37382;45.192;9.790;2023-04-24T11:39:17;100258.78;;;21.28;100.00
51299;BME280;37382;45.192;9.790;2023-04-24T11:41:44;100263.72;;;21.42;100.00
51299;BME280;37382;45.192;9.790;2023-04-24T11:44:13;100253.75;;;21.46;100.00
51299;BME280;37382;45.192;9.790;2023-04-24T11:46:42;100247.91;;;22.08;100.00
51299;BME280;37382;45.192;9.790;2023-04-24T11:49:11;100242.50;;;22.37;100.00
51299;BME280;37382;45.192;9.790;2023-04-24T11:51:39;100252.25;;;21.74;100.00
51299;BME280;37382;45.192;9.790;2023-04-24T11:54:19;100242.34;;;21.63;100.00
51299;BME280;37382;45.192;9.790;2023-04-24T11:56:47;100243.16;;;21.68;100.00
51299;BME280;37382;45.192;9.790;2023-04-24T11:59:17;100236.16;;;22.31;100.00
51299;BME280;37382;45.192;9.790;2023-04-24T12:01:45;100244.75;;;21.85;100.00
51299;BME280;37382;45.192;9.790;2023-04-24T12:04:13;100244.66;;;21.30;93.34
51299;BME280;37382;45.192;9.790;2023-04-24T12:07:03;100233.31;;;21.31;93.67
51299;BME280;37382;45.192;9.790;2023-04-24T12:09:47;100243.81;;;21.50;98.42
51299;BME280;37382;45.192;9.790;2023-04-24T12:12:18;100241.50;;;21.67;98.16
51299;BME280;37382;45.192;9.790;2023-04-24T12:14:52;100234.59;;;21.65;97.03
51299;BME280;37382;45.192;9.790;2023-04-24T12:17:32;100231.09;;;21.94;99.79
51299;BME280;37382;45.192;9.790;2023-04-24T12:20:02;100220.84;;;22.39;98.55
51299;BME280;37382;45.192;9.790;2023-04-24T12:22:53;100210.91;;;22.67;92.67
51299;BME280;37382;45.192;9.790;2023-04-24T12:25:31;100205.88;;;23.66;79.63
51299;BME280;37382;45.192;9.790;2023-04-24T12:30:35;100197.19;;;24.30;79.95
51299;BME280;37382;45.192;9.790;2023-04-24T12:33:06;100197.88;;;23.21;77.20
51299;BME280;37382;45.192;9.790;2023-04-24T12:35:34;100196.44;;;23.48;75.91
51299;BME280;37382;45.192;9.790;2023-04-24T12:38:11;100193.41;;;22.72;75.42
51299;BME280;37382;45.192;9.790;2023-04-24T12:40:41;100186.91;;;22.82;69.67
51299;BME280;37382;45.192;9.790;2023-04-24T12:43:17;100183.44;;;22.95;71.67
51299;BME280;37382;45.192;9.790;2023-04-24T12:45:45;100177.13;;;23.57;65.96
51299;BME280;37382;45.192;9.790;2023-04-24T12:48:13;100174.22;;;23.67;61.48
51299;BME280;37382;45.192;9.790;2023-04-24T12:50:43;100171.63;;;23.95;63.32
51299;BME280;37382;45.192;9.790;2023-04-24T12:53:14;100159.78;;;24.22;62.98
51299;BME280;37382;45.192;9.790;2023-04-24T12:55:43;100164.84;;;23.63;63.86
51299;BME280;37382;45.192;9.790;2023-04-24T12:58:13;100164.31;;;24.18;61.63
51299;BME280;37382;45.192;9.790;2023-04-24T13:00:40;100158.72;;;23.85;57.10
51299;BME280;37382;45.192;9.790;2023-04-24T13:03:11;100155.66;;;24.52;59.91